sensor_id;sensor_type;location;lat;lon;timestamp;temperature;humidity
16666;DHT22;8446;50.998;6.250;2023-07-20T00:02:05;16.30;99.90
16666;DHT22;8446;50.998;6.250;2023-07-20T00:04:33;16.20;99.90
16666;DHT22;8446;50.998;6.250;2023-07-20T00:07:00;16.10;99.90
16666;DHT22;8446;50.998;6.250;2023-07-20T00:09:27;16.00;99.90
16666;DHT22;8446;50.998;6.250;2023-07-20T00:11:54;15.90;99.90
16666;DHT22;8446;50.998;6.250;2023-07-20T00:14:21;15.70;99.90
16666;DHT22;8446;50.998;6.250;2023-07-20T00:16:50;15.40;99.90
16666;DHT22;8446;50.998;6.250;2023-07-20T00:19:21;15.40;99.90
16666;DHT22;8446;50.998;6.250;2023-07-20T00:21:49;15.20;99.90
16666;DHT22;8446;50.998;6.250;2023-07-20T00:24:15;15.20;99.90
16666;DHT22;8446;50.998;6.250;2023-07-20T00:26:42;15.20;99.90
16666;DHT22;8446;50.998;6.250;2023-07-20T00:29:09;15.10;99.90
16666;DHT22;8446;50.998;6.250;2023-07-20T00:31:36;15.10;99.90
16666;DHT22;8446;50.998;6.250;2023-07-20T00:34:05;15.00;99.90
16666;DHT22;8446;50.998;6.250;2023-07-20T00:36:32;15.00;99.90
16666;DHT22;8446;50.998;6.250;2023-07-20T00:38:59;15.10;99.90
16666;DHT22;8446;50.998;6.250;2023-07-20T00:41:25;15.30;99.90
16666;DHT22;8446;50.998;6.250;2023-07-20T00:43:54;15.60;99.90
16666;DHT22;8446;50.998;6.250;2023-07-20T00:46:23;15.70;99.90
16666;DHT22;8446;50.998;6.250;2023-07-20T00:48:50;15.60;99.90
16666;DHT22;8446;50.998;6.250;2023-07-20T00:51:18;15.60;99.90
16666;DHT22;8446;50.998;6.250;2023-07-20T00:53:45;15.50;99.90
16666;DHT22;8446;50.998;6.250;2023-07-20T00:56:12;15.50;99.90
16666;DHT22;8446;50.998;6.250;2023-07-20T00:58:39;15.40;99.90
16666;DHT22;8446;50.998;6.250;2023-07-20T01:01:06;15.30;99.90
16666;DHT22;8446;50.998;6.250;2023-07-20T01:03:33;15.10;99.90
16666;DHT22;8446;50.998;6.250;2023-07-20T01:06:04;15.00;99.90
16666;DHT22;8446;50.998;6.250;2023-07-20T01:08:40;14.80;99.90
16666;DHT22;8446;50.998;6.250;2023-07-20T01:11:12;14.80;99.90
16666;DHT22;8446;50.998;6.250;2023-07-20T01:13:43;14.70;99.90
16666;DHT22;8446;50.998;6.250;2023-07-20T01:16:10;14.80;99.90
16666;DHT22;8446;50.998;6.250;2023-07-20T01:18:37;14.70;99.90
16666;DHT22;8446;50.998;6.250;2023-07-20T01:21:09;14.60;99.90
16666;DHT22;8446;50.998;6.250;2023-07-20T01:24:13;14.60;99.90
16666;DHT22;8446;50.998;6.250;2023-07-20T01:27:06;14.60;99.90
16666;DHT22;8446;50.998;6.250;2023-07-20T01:29:53;14.60;99.90
16666;DHT22;8446;50.998;6.250;2023-07-20T01:32:24;14.60;99.90
16666;DHT22;8446;50.998;6.250;2023-07-20T01:34:52;14.70;99.90
16666;DHT22;8446;50.998;6.250;2023-07-20T01:37:21;14.70;99.90
16666;DHT22;8446;50.998;6.250;2023-07-20T01:39:52;14.80;99.90
16666;DHT22;8446;50.998;6.250;2023-07-20T01:42:21;15.00;99.90
16666;DHT22;8446;50.998;6.250;2023-07-20T01:44:50;15.10;99.90
16666;DHT22;8446;50.998;6.250;2023-07-20T01:47:18;15.20;99.90
16666;DHT22;8446;50.998;6.250;2023-07-20T01:49:46;15.20;99.90
16666;DHT22;8446;50.998;6.250;2023-07-20T01:52:13;15.30;99.90
16666;DHT22;8446;50.998;6.250;2023-07-20T01:54:40;15.30;99.90
16666;DHT22;8446;50.998;6.250;2023-07-20T01:57:07;15.50;99.90
16666;DHT22;8446;50.998;6.250;2023-07-20T01:59:34;15.50;99.90
16666;DHT22;8446;50.998;6.250;2023-07-20T02:02:01;15.50;99.90
16666;DHT22;8446;50.998;6.250;2023-07-20T02:04:26;15.50;99.90
16666;DHT22;8446;50.998;6.250;2023-07-20T02:06:55;15.60;99.90
16666;DHT22;8446;50.998;6.250;2023-07-20T02:09:21;15.60;99.90
16666;DHT22;8446;50.998;6.250;2023-07-20T02:11:48;15.60;99.90
16666;DHT22;8446;50.998;6.250;2023-07-20T02:14:15;15.70;99.90
16666;DHT22;8446;50.998;6.250;2023-07-20T02:16:42;15.70;99.90
16666;DHT22;8446;50.998;6.250;2023-07-20T02:19:09;15.60;99.90
16666;DHT22;8446;50.998;6.250;2023-07-20T02:21:36;15.50;99.90
16666;DHT22;8446;50.998;6.250;2023-07-20T02:24:05;15.60;99.90
16666;DHT22;8446;50.998;6.250;2023-07-20T02:26:32;15.60;99.90
16666;DHT22;8446;50.998;6.250;2023-07-20T02:28:59;15.60;99.90
16666;DHT22;8446;50.998;6.250;2023-07-20T02:31:26;15.70;99.90
16666;DHT22;8446;50.998;6.250;2023-07-20T02:33:52;15.60;99.90
16666;DHT22;8446;50.998;6.250;2023-07-20T02:36:19;15.60;99.90
16666;DHT22;8446;50.998;6.250;2023-07-20T02:38:46;15.60;99.90
16666;DHT22;8446;50.998;6.250;2023-07-20T02:41:14;15.60;99.90
16666;DHT22;8446;50.998;6.250;2023-07-20T02:43:41;15.60;99.90
16666;DHT22;8446;50.998;6.250;2023-07-20T02:46:08;15.70;99.90
16666;DHT22;8446;50.998;6.250;2023-07-20T02:48:35;15.60;99.90
16666;DHT22;8446;50.998;6.250;2023-07-20T02:51:01;15.60;99.90
16666;DHT22;8446;50.998;6.250;2023-07-20T02:53:28;15.70;99.90
16666;DHT22;8446;50.998;6.250;2023-07-20T02:55:55;15.50;99.90
16666;DHT22;8446;50.998;6.250;2023-07-20T02:58:23;15.40;99.90
16666;DHT22;8446;50.998;6.250;2023-07-20T03:00:50;15.40;99.90
16666;DHT22;8446;50.998;6.250;2023-07-20T03:03:17;15.30;99.90
16666;DHT22;8446;50.998;6.250;2023-07-20T03:05:44;15.10;99.90
16666;DHT22;8446;50.998;6.250;2023-07-20T03:08:11;15.10;99.90
16666;DHT22;8446;50.998;6.250;2023-07-20T03:10:39;15.00;99.90
16666;DHT22;8446;50.998;6.250;2023-07-20T03:13:07;14.80;99.90
16666;DHT22;8446;50.998;6.250;2023-07-20T03:15:35;14.60;99.90
16666;DHT22;8446;50.998;6.250;2023-07-20T03:18:02;14.60;99.90
16666;DHT22;8446;50.998;6.250;2023-07-20T03:20:30;14.40;99.90
16666;DHT22;8446;50.998;6.250;2023-07-20T03:22:57;14.40;99.90
16666;DHT22;8446;50.998;6.250;2023-07-20T03:25:24;14.20;99.90
16666;DHT22;8446;50.998;6.250;2023-07-20T03:27:51;14.10;99.90
16666;DHT22;8446;50.998;6.250;2023-07-20T03:30:18;14.10;99.90
16666;DHT22;8446;50.998;6.250;2023-07-20T03:32:46;14.20;99.90
16666;DHT22;8446;50.998;6.250;2023-07-20T03:35:13;14.20;99.90
16666;DHT22;8446;50.998;6.250;2023-07-20T03:37:41;14.20;99.90
16666;DHT22;8446;50.998;6.250;2023-07-20T03:40:09;14.10;99.90
16666;DHT22;8446;50.998;6.250;2023-07-20T03:42:36;14.20;99.90
16666;DHT22;8446;50.998;6.250;2023-07-20T03:45:05;14.30;99.90
16666;DHT22;8446;50.998;6.250;2023-07-20T03:47:32;14.40;99.90
16666;DHT22;8446;50.998;6.250;2023-07-20T03:50:00;14.50;99.90
16666;DHT22;8446;50.998;6.250;2023-07-20T03:52:27;14.60;99.90
16666;DHT22;8446;50.998;6.250;2023-07-20T03:54:53;14.70;99.90
16666;DHT22;8446;50.998;6.250;2023-07-20T03:57:20;14.90;99.90
16666;DHT22;8446;50.998;6.250;2023-07-20T03:59:48;15.00;99.90
16666;DHT22;8446;50.998;6.250;2023-07-20T04:02:15;15.10;99.90
16666;DHT22;8446;50.998;6.250;2023-07-20T04:04:41;15.10;99.90
16666;DHT22;8446;50.998;6.250;2023-07-20T04:07:10;15.10;99.90
16666;DHT22;8446;50.998;6.250;2023-07-20T04:09:37;15.20;99.90
16666;DHT22;8446;50.998;6.250;2023-07-20T04:12:04;15.20;99.90
16666;DHT22;8446;50.998;6.250;2023-07-20T04:14:31;15.20;99.90
16666;DHT22;8446;50.998;6.250;2023-07-20T04:16:58;15.30;99.90
16666;DHT22;8446;50.998;6.250;2023-07-20T04:19:26;15.20;99.90
16666;DHT22;8446;50.998;6.250;2023-07-20T04:21:52;15.20;99.90
16666;DHT22;8446;50.998;6.250;2023-07-20T04:24:20;15.10;99.90
16666;DHT22;8446;50.998;6.250;2023-07-20T04:26:47;15.00;99.90
16666;DHT22;8446;50.998;6.250;2023-07-20T04:29:14;15.10;99.90
16666;DHT22;8446;50.998;6.250;2023-07-20T04:31:41;15.20;99.90
16666;DHT22;8446;50.998;6.250;2023-07-20T04:34:07;15.20;99.90
16666;DHT22;8446;50.998;6.250;2023-07-20T04:36:34;15.30;99.90
16666;DHT22;8446;50.998;6.250;2023-07-20T04:39:01;15.30;99.90
16666;DHT22;8446;50.998;6.250;2023-07-20T04:41:30;15.30;99.90
16666;DHT22;8446;50.998;6.250;2023-07-20T04:43:56;15.30;99.90
16666;DHT22;8446;50.998;6.250;2023-07-20T04:46:23;15.30;99.90
16666;DHT22;8446;50.998;6.250;2023-07-20T04:48:50;15.20;99.90
16666;DHT22;8446;50.998;6.250;2023-07-20T04:51:17;15.30;99.90
16666;DHT22;8446;50.998;6.250;2023-07-20T04:53:46;15.30;99.90
16666;DHT22;8446;50.998;6.250;2023-07-20T04:56:14;15.30;99.90
16666;DHT22;8446;50.998;6.250;2023-07-20T04:58:42;15.30;99.90
16666;DHT22;8446;50.998;6.250;2023-07-20T05:01:09;15.40;99.90
16666;DHT22;8446;50.998;6.250;2023-07-20T05:03:36;15.50;99.90
16666;DHT22;8446;50.998;6.250;2023-07-20T05:06:02;15.50;99.90
16666;DHT22;8446;50.998;6.250;2023-07-20T05:08:29;15.50;99.90
16666;DHT22;8446;50.998;6.250;2023-07-20T05:10:56;15.50;99.90
16666;DHT22;8446;50.998;6.250;2023-07-20T05:13:23;15.50;99.90
16666;DHT22;8446;50.998;6.250;2023-07-20T05:15:52;15.50;99.90
16666;DHT22;8446;50.998;6.250;2023-07-20T05:18:19;15.50;99.90
16666;DHT22;8446;50.998;6.250;2023-07-20T05:20:46;15.50;99.90
16666;DHT22;8446;50.998;6.250;2023-07-20T05:23:13;15.50;99.90
16666;DHT22;8446;50.998;6.250;2023-07-20T05:25:40;15.50;99.90
16666;DHT22;8446;50.998;6.250;2023-07-20T05:28:07;15.60;99.90
16666;DHT22;8446;50.998;6.250;2023-07-20T05:30:34;15.60;99.90
16666;DHT22;8446;50.998;6.250;2023-07-20T05:33:02;15.60;99.90
16666;DHT22;8446;50.998;6.250;2023-07-20T05:35:29;15.70;99.90
16666;DHT22;8446;50.998;6.250;2023-07-20T05:37:56;15.80;99.90
16666;DHT22;8446;50.998;6.250;2023-07-20T05:40:23;15.90;99.90
16666;DHT22;8446;50.998;6.250;2023-07-20T05:42:49;15.90;99.90
16666;DHT22;8446;50.998;6.250;2023-07-20T05:45:17;15.90;99.90
16666;DHT22;8446;50.998;6.250;2023-07-20T05:47:44;16.00;99.90
16666;DHT22;8446;50.998;6.250;2023-07-20T05:50:12;16.00;99.90
16666;DHT22;8446;50.998;6.250;2023-07-20T05:52:39;16.10;99.90
16666;DHT22;8446;50.998;6.250;2023-07-20T05:55:07;16.20;99.90
16666;DHT22;8446;50.998;6.250;2023-07-20T05:57:34;16.10;99.90
16666;DHT22;8446;50.998;6.250;2023-07-20T06:00:06;16.20;99.90
16666;DHT22;8446;50.998;6.250;2023-07-20T06:02:33;16.30;99.90
16666;DHT22;8446;50.998;6.250;2023-07-20T06:05:00;16.30;99.90
16666;DHT22;8446;50.998;6.250;2023-07-20T06:07:28;16.40;99.90
16666;DHT22;8446;50.998;6.250;2023-07-20T06:09:55;16.30;99.90
16666;DHT22;8446;50.998;6.250;2023-07-20T06:12:22;16.30;99.90
16666;DHT22;8446;50.998;6.250;2023-07-20T06:14:48;16.40;99.90
16666;DHT22;8446;50.998;6.250;2023-07-20T06:17:15;16.70;99.90
16666;DHT22;8446;50.998;6.250;2023-07-20T06:19:42;16.70;99.90
16666;DHT22;8446;50.998;6.250;2023-07-20T06:22:09;16.90;99.90
16666;DHT22;8446;50.998;6.250;2023-07-20T06:24:37;17.00;99.90
16666;DHT22;8446;50.998;6.250;2023-07-20T06:27:05;16.90;99.90
16666;DHT22;8446;50.998;6.250;2023-07-20T06:29:32;16.90;99.90
16666;DHT22;8446;50.998;6.250;2023-07-20T06:31:59;16.90;99.90
16666;DHT22;8446;50.998;6.250;2023-07-20T06:34:25;17.00;99.90
16666;DHT22;8446;50.998;6.250;2023-07-20T06:36:52;16.90;99.90
16666;DHT22;8446;50.998;6.250;2023-07-20T06:39:19;17.00;99.90
16666;DHT22;8446;50.998;6.250;2023-07-20T06:41:48;17.00;99.90
16666;DHT22;8446;50.998;6.250;2023-07-20T06:44:15;17.20;99.90
16666;DHT22;8446;50.998;6.250;2023-07-20T06:46:42;17.10;99.90
16666;DHT22;8446;50.998;6.250;2023-07-20T06:49:08;16.90;99.90
16666;DHT22;8446;50.998;6.250;2023-07-20T06:51:35;16.80;99.90
16666;DHT22;8446;50.998;6.250;2023-07-20T06:54:02;16.90;99.90
16666;DHT22;8446;50.998;6.250;2023-07-20T06:56:30;17.20;99.90
16666;DHT22;8446;50.998;6.250;2023-07-20T06:58:58;17.50;99.90
16666;DHT22;8446;50.998;6.250;2023-07-20T07:01:25;17.70;99.90
16666;DHT22;8446;50.998;6.250;2023-07-20T07:03:51;17.70;99.90
16666;DHT22;8446;50.998;6.250;2023-07-20T07:06:18;17.40;99.90
16666;DHT22;8446;50.998;6.250;2023-07-20T07:08:46;17.20;99.90
16666;DHT22;8446;50.998;6.250;2023-07-20T07:11:13;17.30;99.90
16666;DHT22;8446;50.998;6.250;2023-07-20T07:13:40;17.50;99.90
16666;DHT22;8446;50.998;6.250;2023-07-20T07:16:08;17.60;99.90
16666;DHT22;8446;50.998;6.250;2023-07-20T07:18:35;17.50;99.90
16666;DHT22;8446;50.998;6.250;2023-07-20T07:21:01;17.40;99.90
16666;DHT22;8446;50.998;6.250;2023-07-20T07:23:28;17.00;99.90
16666;DHT22;8446;50.998;6.250;2023-07-20T07:25:55;16.90;99.90
16666;DHT22;8446;50.998;6.250;2023-07-20T07:28:22;16.80;99.90
16666;DHT22;8446;50.998;6.250;2023-07-20T07:30:48;16.70;99.90
16666;DHT22;8446;50.998;6.250;2023-07-20T07:33:17;16.70;99.90
16666;DHT22;8446;50.998;6.250;2023-07-20T07:35:43;16.70;99.90
16666;DHT22;8446;50.998;6.250;2023-07-20T07:38:10;16.70;99.90
16666;DHT22;8446;50.998;6.250;2023-07-20T07:40:37;16.90;99.90
16666;DHT22;8446;50.998;6.250;2023-07-20T07:43:04;17.30;99.90
16666;DHT22;8446;50.998;6.250;2023-07-20T07:45:33;18.10;99.90
16666;DHT22;8446;50.998;6.250;2023-07-20T07:48:01;18.10;99.70
16666;DHT22;8446;50.998;6.250;2023-07-20T07:50:29;18.30;99.00
16666;DHT22;8446;50.998;6.250;2023-07-20T07:52:56;18.50;98.50
16666;DHT22;8446;50.998;6.250;2023-07-20T07:55:23;18.60;97.50
16666;DHT22;8446;50.998;6.250;2023-07-20T07:57:52;19.30;97.70
16666;DHT22;8446;50.998;6.250;2023-07-20T08:00:19;19.50;96.70
16666;DHT22;8446;50.998;6.250;2023-07-20T08:02:46;19.50;96.50
16666;DHT22;8446;50.998;6.250;2023-07-20T08:05:13;18.50;97.70
16666;DHT22;8446;50.998;6.250;2023-07-20T08:07:41;18.10;98.60
16666;DHT22;8446;50.998;6.250;2023-07-20T08:10:09;17.90;99.10
16666;DHT22;8446;50.998;6.250;2023-07-20T08:12:36;18.60;98.90
16666;DHT22;8446;50.998;6.250;2023-07-20T08:15:03;19.50;98.10
16666;DHT22;8446;50.998;6.250;2023-07-20T08:17:30;19.80;97.50
16666;DHT22;8446;50.998;6.250;2023-07-20T08:19:57;20.00;95.10
16666;DHT22;8446;50.998;6.250;2023-07-20T08:22:24;19.20;95.70
16666;DHT22;8446;50.998;6.250;2023-07-20T08:24:52;19.00;96.30
16666;DHT22;8446;50.998;6.250;2023-07-20T08:27:19;18.70;96.90
16666;DHT22;8446;50.998;6.250;2023-07-20T08:29:46;18.20;97.80
16666;DHT22;8446;50.998;6.250;2023-07-20T08:32:13;18.40;97.70
16666;DHT22;8446;50.998;6.250;2023-07-20T08:34:41;18.60;95.90
16666;DHT22;8446;50.998;6.250;2023-07-20T08:37:08;18.70;95.90
16666;DHT22;8446;50.998;6.250;2023-07-20T08:39:35;18.30;96.90
16666;DHT22;8446;50.998;6.250;2023-07-20T08:42:04;18.70;96.50
16666;DHT22;8446;50.998;6.250;2023-07-20T08:44:32;18.90;96.00
16666;DHT22;8446;50.998;6.250;2023-07-20T08:47:00;18.90;96.80
16666;DHT22;8446;50.998;6.250;2023-07-20T08:49:29;18.80;95.80
16666;DHT22;8446;50.998;6.250;2023-07-20T08:51:56;19.20;94.80
16666;DHT22;8446;50.998;6.250;2023-07-20T08:54:24;19.70;94.00
16666;DHT22;8446;50.998;6.250;2023-07-20T08:56:57;19.40;95.50
16666;DHT22;8446;50.998;6.250;2023-07-20T08:59:26;19.80;94.20
16666;DHT22;8446;50.998;6.250;2023-07-20T09:01:54;19.80;94.60
16666;DHT22;8446;50.998;6.250;2023-07-20T09:04:22;19.60;94.70
16666;DHT22;8446;50.998;6.250;2023-07-20T09:06:49;19.50;95.00
16666;DHT22;8446;50.998;6.250;2023-07-20T09:09:16;19.20;94.60
16666;DHT22;8446;50.998;6.250;2023-07-20T09:11:44;19.50;95.60
16666;DHT22;8446;50.998;6.250;2023-07-20T09:14:12;19.50;95.80
16666;DHT22;8446;50.998;6.250;2023-07-20T09:16:52;20.10;95.00
16666;DHT22;8446;50.998;6.250;2023-07-20T09:19:19;20.40;93.00
16666;DHT22;8446;50.998;6.250;2023-07-20T09:21:46;20.40;92.50
16666;DHT22;8446;50.998;6.250;2023-07-20T09:24:13;21.10;91.40
16666;DHT22;8446;50.998;6.250;2023-07-20T09:26:45;21.10;91.50
16666;DHT22;8446;50.998;6.250;2023-07-20T09:29:14;20.90;92.00
16666;DHT22;8446;50.998;6.250;2023-07-20T09:31:41;20.80;92.50
16666;DHT22;8446;50.998;6.250;2023-07-20T09:34:09;19.80;93.00
16666;DHT22;8446;50.998;6.250;2023-07-20T09:36:36;19.80;92.30
16666;DHT22;8446;50.998;6.250;2023-07-20T09:39:04;20.00;92.40
16666;DHT22;8446;50.998;6.250;2023-07-20T09:41:39;20.30;92.80
16666;DHT22;8446;50.998;6.250;2023-07-20T09:44:07;19.60;92.70
16666;DHT22;8446;50.998;6.250;2023-07-20T09:46:43;19.90;93.00
16666;DHT22;8446;50.998;6.250;2023-07-20T09:49:11;20.50;93.50
16666;DHT22;8446;50.998;6.250;2023-07-20T09:51:38;20.60;92.70
16666;DHT22;8446;50.998;6.250;2023-07-20T09:54:05;20.80;92.40
16666;DHT22;8446;50.998;6.250;2023-07-20T09:56:33;20.30;91.90
16666;DHT22;8446;50.998;6.250;2023-07-20T09:59:00;20.30;91.10
16666;DHT22;8446;50.998;6.250;2023-07-20T10:01:27;20.50;91.10
16666;DHT22;8446;50.998;6.250;2023-07-20T10:03:56;20.80;90.50
16666;DHT22;8446;50.998;6.250;2023-07-20T10:06:28;21.00;91.30
16666;DHT22;8446;50.998;6.250;2023-07-20T10:09:00;20.70;90.70
16666;DHT22;8446;50.998;6.250;2023-07-20T10:11:30;20.80;91.10
16666;DHT22;8446;50.998;6.250;2023-07-20T10:13:59;20.70;91.40
16666;DHT22;8446;50.998;6.250;2023-07-20T10:16:29;20.80;91.10
16666;DHT22;8446;50.998;6.250;2023-07-20T10:19:03;21.40;91.70
16666;DHT22;8446;50.998;6.250;2023-07-20T10:21:34;22.10;89.00
16666;DHT22;8446;50.998;6.250;2023-07-20T10:24:02;21.40;86.00
16666;DHT22;8446;50.998;6.250;2023-07-20T10:26:30;20.60;88.50
16666;DHT22;8446;50.998;6.250;2023-07-20T10:28:57;20.20;89.00
16666;DHT22;8446;50.998;6.250;2023-07-20T10:31:25;21.00;88.80
16666;DHT22;8446;50.998;6.250;2023-07-20T10:33:54;21.30;89.30
16666;DHT22;8446;50.998;6.250;2023-07-20T10:36:25;21.20;89.60
16666;DHT22;8446;50.998;6.250;2023-07-20T10:38:55;21.30;89.40
16666;DHT22;8446;50.998;6.250;2023-07-20T10:41:27;20.80;87.80
16666;DHT22;8446;50.998;6.250;2023-07-20T10:43:58;20.20;89.10
16666;DHT22;8446;50.998;6.250;2023-07-20T10:46:43;20.20;89.80
16666;DHT22;8446;50.998;6.250;2023-07-20T10:49:12;21.10;87.70
16666;DHT22;8446;50.998;6.250;2023-07-20T10:51:40;21.20;81.60
16666;DHT22;8446;50.998;6.250;2023-07-20T10:54:48;21.80;85.80
16666;DHT22;8446;50.998;6.250;2023-07-20T10:57:31;21.70;84.40
16666;DHT22;8446;50.998;6.250;2023-07-20T11:00:09;22.10;82.90
16666;DHT22;8446;50.998;6.250;2023-07-20T11:02:47;22.50;84.60
16666;DHT22;8446;50.998;6.250;2023-07-20T11:05:34;21.90;87.50
16666;DHT22;8446;50.998;6.250;2023-07-20T11:08:04;21.50;83.40
16666;DHT22;8446;50.998;6.250;2023-07-20T11:10:32;21.60;84.10
16666;DHT22;8446;50.998;6.250;2023-07-20T11:13:26;21.00;85.00
16666;DHT22;8446;50.998;6.250;2023-07-20T11:16:03;20.60;84.40
16666;DHT22;8446;50.998;6.250;2023-07-20T11:18:34;20.50;85.90
16666;DHT22;8446;50.998;6.250;2023-07-20T11:21:07;21.10;87.80
16666;DHT22;8446;50.998;6.250;2023-07-20T11:23:38;21.20;85.10
16666;DHT22;8446;50.998;6.250;2023-07-20T11:26:06;20.90;84.60
16666;DHT22;8446;50.998;6.250;2023-07-20T11:28:34;20.70;86.50
16666;DHT22;8446;50.998;6.250;2023-07-20T11:31:01;20.60;87.50
16666;DHT22;8446;50.998;6.250;2023-07-20T11:33:27;20.80;88.20
16666;DHT22;8446;50.998;6.250;2023-07-20T11:35:54;21.50;86.10
16666;DHT22;8446;50.998;6.250;2023-07-20T11:38:21;21.90;85.50
16666;DHT22;8446;50.998;6.250;2023-07-20T11:40:49;21.30;85.20
16666;DHT22;8446;50.998;6.250;2023-07-20T11:43:18;21.10;87.70
16666;DHT22;8446;50.998;6.250;2023-07-20T11:45:46;21.60;88.70
16666;DHT22;8446;50.998;6.250;2023-07-20T11:48:15;21.70;84.90
16666;DHT22;8446;50.998;6.250;2023-07-20T11:50:42;21.30;86.40
16666;DHT22;8446;50.998;6.250;2023-07-20T11:53:09;21.10;85.70
16666;DHT22;8446;50.998;6.250;2023-07-20T11:55:36;20.80;86.20
16666;DHT22;8446;50.998;6.250;2023-07-20T11:58:04;21.00;86.60
16666;DHT22;8446;50.998;6.250;2023-07-20T12:00:32;20.80;85.60
16666;DHT22;8446;50.998;6.250;2023-07-20T12:03:00;21.00;87.40
16666;DHT22;8446;50.998;6.250;2023-07-20T12:05:27;20.90;85.20
16666;DHT22;8446;50.998;6.250;2023-07-20T12:07:54;21.10;86.40
16666;DHT22;8446;50.998;6.250;2023-07-20T12:10:26;21.10;85.90
16666;DHT22;8446;50.998;6.250;2023-07-20T12:12:54;21.00;90.40
16666;DHT22;8446;50.998;6.250;2023-07-20T12:15:22;21.00;85.90
16666;DHT22;8446;50.998;6.250;2023-07-20T12:17:52;20.80;89.10
16666;DHT22;8446;50.998;6.250;2023-07-20T12:20:28;20.50;89.10
16666;DHT22;8446;50.998;6.250;2023-07-20T12:22:58;20.60;91.10
16666;DHT22;8446;50.998;6.250;2023-07-20T12:25:42;20.60;90.80
16666;DHT22;8446;50.998;6.250;2023-07-20T12:28:10;20.90;86.90
16666;DHT22;8446;50.998;6.250;2023-07-20T12:30:37;20.90;89.40
16666;DHT22;8446;50.998;6.250;2023-07-20T12:33:05;20.80;90.70
16666;DHT22;8446;50.998;6.250;2023-07-20T12:35:32;21.20;91.20
16666;DHT22;8446;50.998;6.250;2023-07-20T12:37:59;22.50;90.10
16666;DHT22;8446;50.998;6.250;2023-07-20T12:40:26;22.90;89.60
16666;DHT22;8446;50.998;6.250;2023-07-20T12:42:53;22.60;87.50
16666;DHT22;8446;50.998;6.250;2023-07-20T12:45:20;22.50;85.70
16666;DHT22;8446;50.998;6.250;2023-07-20T12:47:47;22.90;87.00
16666;DHT22;8446;50.998;6.250;2023-07-20T12:50:15;22.80;85.20
16666;DHT22;8446;50.998;6.250;2023-07-20T12:52:42;23.20;82.20
16666;DHT22;8446;50.998;6.250;2023-07-20T12:55:10;23.00;80.90
16666;DHT22;8446;50.998;6.250;2023-07-20T12:57:37;22.90;83.30
16666;DHT22;8446;50.998;6.250;2023-07-20T13:00:06;23.20;80.90
16666;DHT22;8446;50.998;6.250;2023-07-20T13:02:34;23.20;80.70
16666;DHT22;8446;50.998;6.250;2023-07-20T13:05:02;23.10;82.20
16666;DHT22;8446;50.998;6.250;2023-07-20T13:07:31;23.10;78.30
16666;DHT22;8446;50.998;6.250;2023-07-20T13:09:58;22.50;81.50
16666;DHT22;8446;50.998;6.250;2023-07-20T13:12:26;22.10;81.80
16666;DHT22;8446;50.998;6.250;2023-07-20T13:14:54;23.00;82.50
16666;DHT22;8446;50.998;6.250;2023-07-20T13:17:20;23.30;77.70
16666;DHT22;8446;50.998;6.250;2023-07-20T13:19:47;22.50;82.20
16666;DHT22;8446;50.998;6.250;2023-07-20T13:22:14;22.40;80.20
16666;DHT22;8446;50.998;6.250;2023-07-20T13:24:45;22.20;79.50
16666;DHT22;8446;50.998;6.250;2023-07-20T13:27:12;22.10;81.00
16666;DHT22;8446;50.998;6.250;2023-07-20T13:29:38;22.20;79.00
16666;DHT22;8446;50.998;6.250;2023-07-20T13:32:06;22.50;79.70
16666;DHT22;8446;50.998;6.250;2023-07-20T13:34:33;22.80;79.30
16666;DHT22;8446;50.998;6.250;2023-07-20T13:37:00;23.10;77.10
16666;DHT22;8446;50.998;6.250;2023-07-20T13:39:27;23.70;77.30
16666;DHT22;8446;50.998;6.250;2023-07-20T13:41:56;24.60;75.50
16666;DHT22;8446;50.998;6.250;2023-07-20T13:44:23;24.50;75.00
16666;DHT22;8446;50.998;6.250;2023-07-20T13:46:49;24.90;74.40
16666;DHT22;8446;50.998;6.250;2023-07-20T13:49:17;24.20;76.20
16666;DHT22;8446;50.998;6.250;2023-07-20T13:51:43;23.90;74.60
16666;DHT22;8446;50.998;6.250;2023-07-20T13:54:11;23.40;75.00
16666;DHT22;8446;50.998;6.250;2023-07-20T13:56:38;23.40;74.40
16666;DHT22;8446;50.998;6.250;2023-07-20T13:59:06;22.90;75.90
16666;DHT22;8446;50.998;6.250;2023-07-20T14:01:33;23.00;73.50
16666;DHT22;8446;50.998;6.250;2023-07-20T14:04:01;22.60;75.30
16666;DHT22;8446;50.998;6.250;2023-07-20T14:06:30;22.60;76.10
16666;DHT22;8446;50.998;6.250;2023-07-20T14:08:58;22.80;75.60
16666;DHT22;8446;50.998;6.250;2023-07-20T14:11:26;22.50;75.10
16666;DHT22;8446;50.998;6.250;2023-07-20T14:13:53;22.40;76.50
16666;DHT22;8446;50.998;6.250;2023-07-20T14:16:21;23.10;74.20
16666;DHT22;8446;50.998;6.250;2023-07-20T14:18:49;22.60;73.90
16666;DHT22;8446;50.998;6.250;2023-07-20T14:21:16;22.60;74.40
16666;DHT22;8446;50.998;6.250;2023-07-20T14:23:45;22.70;75.10
16666;DHT22;8446;50.998;6.250;2023-07-20T14:26:12;22.60;75.40
16666;DHT22;8446;50.998;6.250;2023-07-20T14:28:39;22.60;74.30
16666;DHT22;8446;50.998;6.250;2023-07-20T14:31:06;23.40;75.70
16666;DHT22;8446;50.998;6.250;2023-07-20T14:33:34;23.80;72.50
16666;DHT22;8446;50.998;6.250;2023-07-20T14:36:01;23.60;74.00
16666;DHT22;8446;50.998;6.250;2023-07-20T14:38:28;23.20;73.90
16666;DHT22;8446;50.998;6.250;2023-07-20T14:40:55;23.00;74.40
16666;DHT22;8446;50.998;6.250;2023-07-20T14:43:21;22.90;77.00
16666;DHT22;8446;50.998;6.250;2023-07-20T14:45:48;22.70;75.50
16666;DHT22;8446;50.998;6.250;2023-07-20T14:48:15;22.80;75.70
16666;DHT22;8446;50.998;6.250;2023-07-20T14:50:43;23.30;75.40
16666;DHT22;8446;50.998;6.250;2023-07-20T14:53:11;23.60;74.80
16666;DHT22;8446;50.998;6.250;2023-07-20T14:55:38;23.10;75.00
16666;DHT22;8446;50.998;6.250;2023-07-20T14:58:04;23.00;74.20
16666;DHT22;8446;50.998;6.250;2023-07-20T15:00:31;22.50;73.30
16666;DHT22;8446;50.998;6.250;2023-07-20T15:02:58;22.70;76.10
16666;DHT22;8446;50.998;6.250;2023-07-20T15:05:25;23.10;74.90
16666;DHT22;8446;50.998;6.250;2023-07-20T15:07:54;23.40;76.10
16666;DHT22;8446;50.998;6.250;2023-07-20T15:10:21;23.80;76.50
16666;DHT22;8446;50.998;6.250;2023-07-20T15:12:48;23.50;72.50
16666;DHT22;8446;50.998;6.250;2023-07-20T15:15:15;24.10;68.90
16666;DHT22;8446;50.998;6.250;2023-07-20T15:17:44;24.00;71.00
16666;DHT22;8446;50.998;6.250;2023-07-20T15:20:13;24.50;75.10
16666;DHT22;8446;50.998;6.250;2023-07-20T15:22:40;25.30;72.60
16666;DHT22;8446;50.998;6.250;2023-07-20T15:25:09;25.10;69.80
16666;DHT22;8446;50.998;6.250;2023-07-20T15:27:37;24.70;72.40
16666;DHT22;8446;50.998;6.250;2023-07-20T15:30:06;24.60;71.40
16666;DHT22;8446;50.998;6.250;2023-07-20T15:32:33;23.90;74.20
16666;DHT22;8446;50.998;6.250;2023-07-20T15:34:59;23.70;72.90
16666;DHT22;8446;50.998;6.250;2023-07-20T15:37:28;24.00;76.20
16666;DHT22;8446;50.998;6.250;2023-07-20T15:39:55;24.70;70.40
16666;DHT22;8446;50.998;6.250;2023-07-20T15:42:23;24.80;74.10
16666;DHT22;8446;50.998;6.250;2023-07-20T15:44:49;24.60;72.30
16666;DHT22;8446;50.998;6.250;2023-07-20T15:47:16;24.20;68.90
16666;DHT22;8446;50.998;6.250;2023-07-20T15:49:44;23.70;73.00
16666;DHT22;8446;50.998;6.250;2023-07-20T15:52:11;23.60;72.90